sensor_id;sensor_type;location;lat;lon;timestamp;pressure;altitude;pressure_sealevel;temperature;humidity
69153;BME280;56261;51.580;4.578;2023-07-24T00:00:52;100559.25;;;17.88;100.00
69153;BME280;56261;51.580;4.578;2023-07-24T00:03:17;100556.72;;;17.93;100.00
69153;BME280;56261;51.580;4.578;2023-07-24T00:05:43;100552.59;;;17.91;100.00
69153;BME280;56261;51.580;4.578;2023-07-24T00:08:08;100545.31;;;17.91;100.00
69153;BME280;56261;51.580;4.578;2023-07-24T00:10:34;100538.94;;;17.86;100.00
69153;BME280;56261;51.580;4.578;2023-07-24T00:12:59;100545.19;;;17.86;100.00
69153;BME280;56261;51.580;4.578;2023-07-24T00:15:24;100552.25;;;17.80;100.00
69153;BME280;56261;51.580;4.578;2023-07-24T00:17:50;100551.66;;;17.78;100.00
69153;BME280;56261;51.580;4.578;2023-07-24T00:20:15;100535.31;;;17.73;100.00
69153;BME280;56261;51.580;4.578;2023-07-24T00:22:40;100528.25;;;17.72;100.00
69153;BME280;56261;51.580;4.578;2023-07-24T00:25:06;100525.75;;;17.77;100.00
69153;BME280;56261;51.580;4.578;2023-07-24T00:27:32;100518.47;;;17.78;100.00
69153;BME280;56261;51.580;4.578;2023-07-24T00:29:57;100520.16;;;17.72;100.00
69153;BME280;56261;51.580;4.578;2023-07-24T00:32:22;100529.41;;;17.64;100.00
69153;BME280;56261;51.580;4.578;2023-07-24T00:34:48;100529.13;;;17.73;100.00
69153;BME280;56261;51.580;4.578;2023-07-24T00:37:13;100536.22;;;17.67;100.00
69153;BME280;56261;51.580;4.578;2023-07-24T00:39:39;100527.84;;;17.75;100.00
69153;BME280;56261;51.580;4.578;2023-07-24T00:42:04;100529.53;;;17.70;100.00
69153;BME280;56261;51.580;4.578;2023-07-24T00:44:30;100520.50;;;17.64;100.00
69153;BME280;56261;51.580;4.578;2023-07-24T00:46:55;100519.03;;;17.61;100.00
69153;BME280;56261;51.580;4.578;2023-07-24T00:49:21;100516.19;;;17.56;100.00
69153;BME280;56261;51.580;4.578;2023-07-24T00:51:47;100506.69;;;17.54;100.00
69153;BME280;56261;51.580;4.578;2023-07-24T00:54:13;100514.63;;;17.49;100.00
69153;BME280;56261;51.580;4.578;2023-07-24T00:56:41;100520.38;;;17.52;100.00
69153;BME280;56261;51.580;4.578;2023-07-24T00:59:08;100515.25;;;17.51;100.00
69153;BME280;56261;51.580;4.578;2023-07-24T01:01:33;100509.38;;;17.54;100.00
69153;BME280;56261;51.580;4.578;2023-07-24T01:03:59;100506.63;;;17.60;100.00
69153;BME280;56261;51.580;4.578;2023-07-24T01:06:25;100513.50;;;17.56;100.00
69153;BME280;56261;51.580;4.578;2023-07-24T01:08:51;100507.91;;;17.58;100.00
69153;BME280;56261;51.580;4.578;2023-07-24T01:11:34;100505.94;;;17.65;100.00
69153;BME280;56261;51.580;4.578;2023-07-24T01:14:06;100508.19;;;17.50;100.00
69153;BME280;56261;51.580;4.578;2023-07-24T01:16:37;100509.16;;;17.55;100.00
69153;BME280;56261;51.580;4.578;2023-07-24T01:19:11;100501.69;;;17.57;100.00
69153;BME280;56261;51.580;4.578;2023-07-24T01:25:05;100501.09;;;17.55;100.00
69153;BME280;56261;51.580;4.578;2023-07-24T01:27:34;100498.38;;;17.55;100.00
69153;BME280;56261;51.580;4.578;2023-07-24T01:30:00;100500.25;;;17.55;100.00
69153;BME280;56261;51.580;4.578;2023-07-24T01:32:25;100495.00;;;17.60;100.00
69153;BME280;56261;51.580;4.578;2023-07-24T01:34:51;100492.75;;;17.57;100.00
69153;BME280;56261;51.580;4.578;2023-07-24T01:37:19;100503.69;;;17.62;100.00
69153;BME280;56261;51.580;4.578;2023-07-24T01:39:46;100490.81;;;17.64;100.00
69153;BME280;56261;51.580;4.578;2023-07-24T01:42:11;100498.13;;;17.57;100.00
69153;BME280;56261;51.580;4.578;2023-07-24T01:44:38;100490.28;;;17.55;100.00
69153;BME280;56261;51.580;4.578;2023-07-24T01:47:03;100491.09;;;17.56;100.00
69153;BME280;56261;51.580;4.578;2023-07-24T01:49:29;100486.53;;;17.56;100.00
69153;BME280;56261;51.580;4.578;2023-07-24T01:51:54;100479.88;;;17.59;100.00
69153;BME280;56261;51.580;4.578;2023-07-24T01:54:19;100471.34;;;17.62;100.00
69153;BME280;56261;51.580;4.578;2023-07-24T01:56:45;100467.81;;;17.43;100.00
69153;BME280;56261;51.580;4.578;2023-07-24T01:59:10;100463.00;;;17.45;100.00
69153;BME280;56261;51.580;4.578;2023-07-24T02:01:35;100455.66;;;17.34;100.00
69153;BME280;56261;51.580;4.578;2023-07-24T02:04:01;100457.25;;;17.41;100.00
69153;BME280;56261;51.580;4.578;2023-07-24T02:06:27;100450.00;;;17.42;100.00
69153;BME280;56261;51.580;4.578;2023-07-24T02:08:52;100458.75;;;17.37;100.00
69153;BME280;56261;51.580;4.578;2023-07-24T02:11:18;100449.69;;;17.32;100.00
69153;BME280;56261;51.580;4.578;2023-07-24T02:13:44;100449.06;;;17.30;100.00
69153;BME280;56261;51.580;4.578;2023-07-24T02:16:11;100447.13;;;17.37;100.00
69153;BME280;56261;51.580;4.578;2023-07-24T02:18:37;100430.72;;;17.38;100.00
69153;BME280;56261;51.580;4.578;2023-07-24T02:21:03;100440.69;;;17.38;100.00
69153;BME280;56261;51.580;4.578;2023-07-24T02:23:28;100448.94;;;17.43;100.00
69153;BME280;56261;51.580;4.578;2023-07-24T02:25:54;100454.19;;;17.38;100.00
69153;BME280;56261;51.580;4.578;2023-07-24T02:28:19;100466.16;;;17.42;100.00
69153;BME280;56261;51.580;4.578;2023-07-24T02:30:46;100458.28;;;17.40;100.00
69153;BME280;56261;51.580;4.578;2023-07-24T02:33:12;100461.59;;;17.42;100.00
69153;BME280;56261;51.580;4.578;2023-07-24T02:35:41;100453.78;;;17.34;100.00
69153;BME280;56261;51.580;4.578;2023-07-24T02:38:07;100451.56;;;17.31;100.00
69153;BME280;56261;51.580;4.578;2023-07-24T02:40:33;100437.00;;;17.32;100.00
69153;BME280;56261;51.580;4.578;2023-07-24T02:42:58;100434.31;;;17.32;100.00
69153;BME280;56261;51.580;4.578;2023-07-24T02:45:24;100429.00;;;17.26;100.00
69153;BME280;56261;51.580;4.578;2023-07-24T02:47:49;100428.13;;;17.32;100.00
69153;BME280;56261;51.580;4.578;2023-07-24T02:50:15;100436.41;;;17.30;100.00
69153;BME280;56261;51.580;4.578;2023-07-24T02:52:40;100447.44;;;17.29;100.00
69153;BME280;56261;51.580;4.578;2023-07-24T02:55:06;100444.34;;;17.25;100.00
69153;BME280;56261;51.580;4.578;2023-07-24T02:57:31;100443.75;;;17.23;100.00
69153;BME280;56261;51.580;4.578;2023-07-24T02:59:57;100436.13;;;17.20;100.00
69153;BME280;56261;51.580;4.578;2023-07-24T03:02:22;100443.16;;;17.21;100.00
69153;BME280;56261;51.580;4.578;2023-07-24T03:04:47;100443.53;;;17.06;100.00
69153;BME280;56261;51.580;4.578;2023-07-24T03:07:13;100448.31;;;17.04;100.00
69153;BME280;56261;51.580;4.578;2023-07-24T03:09:38;100426.31;;;17.07;100.00
69153;BME280;56261;51.580;4.578;2023-07-24T03:12:04;100434.38;;;17.07;100.00
69153;BME280;56261;51.580;4.578;2023-07-24T03:14:29;100431.06;;;16.87;100.00
69153;BME280;56261;51.580;4.578;2023-07-24T03:16:54;100436.19;;;16.95;100.00
69153;BME280;56261;51.580;4.578;2023-07-24T03:19:20;100432.88;;;16.93;100.00
69153;BME280;56261;51.580;4.578;2023-07-24T03:21:45;100433.16;;;17.03;100.00
69153;BME280;56261;51.580;4.578;2023-07-24T03:24:11;100432.97;;;17.05;100.00
69153;BME280;56261;51.580;4.578;2023-07-24T03:26:36;100422.69;;;16.95;100.00
69153;BME280;56261;51.580;4.578;2023-07-24T03:29:02;100416.41;;;17.01;100.00
69153;BME280;56261;51.580;4.578;2023-07-24T03:31:27;100415.59;;;17.00;100.00
69153;BME280;56261;51.580;4.578;2023-07-24T03:33:53;100415.03;;;16.92;100.00
69153;BME280;56261;51.580;4.578;2023-07-24T03:36:18;100395.69;;;16.76;100.00
69153;BME280;56261;51.580;4.578;2023-07-24T03:38:43;100418.59;;;16.92;100.00
69153;BME280;56261;51.580;4.578;2023-07-24T03:41:09;100423.31;;;16.97;100.00
69153;BME280;56261;51.580;4.578;2023-07-24T03:43:34;100419.81;;;16.90;100.00
69153;BME280;56261;51.580;4.578;2023-07-24T03:45:59;100416.88;;;16.98;100.00
69153;BME280;56261;51.580;4.578;2023-07-24T03:48:25;100423.66;;;17.00;100.00
69153;BME280;56261;51.580;4.578;2023-07-24T03:50:58;100425.22;;;16.90;100.00
69153;BME280;56261;51.580;4.578;2023-07-24T03:53:24;100426.44;;;16.94;100.00
69153;BME280;56261;51.580;4.578;2023-07-24T03:55:49;100426.38;;;17.00;100.00
69153;BME280;56261;51.580;4.578;2023-07-24T03:58:15;100422.84;;;17.00;100.00
69153;BME280;56261;51.580;4.578;2023-07-24T04:00:40;100428.91;;;16.95;100.00
69153;BME280;56261;51.580;4.578;2023-07-24T04:03:05;100431.06;;;16.87;100.00
69153;BME280;56261;51.580;4.578;2023-07-24T04:05:31;100423.19;;;16.85;100.00
69153;BME280;56261;51.580;4.578;2023-07-24T04:07:56;100427.16;;;16.83;100.00
69153;BME280;56261;51.580;4.578;2023-07-24T04:10:22;100433.34;;;16.83;100.00
69153;BME280;56261;51.580;4.578;2023-07-24T04:12:47;100429.84;;;16.83;100.00
69153;BME280;56261;51.580;4.578;2023-07-24T04:15:13;100431.81;;;16.69;100.00
69153;BME280;56261;51.580;4.578;2023-07-24T04:17:38;100426.81;;;16.72;100.00
69153;BME280;56261;51.580;4.578;2023-07-24T04:20:06;100425.38;;;16.70;100.00
69153;BME280;56261;51.580;4.578;2023-07-24T04:22:31;100428.91;;;16.70;100.00
69153;BME280;56261;51.580;4.578;2023-07-24T04:24:57;100431.81;;;16.69;100.00
69153;BME280;56261;51.580;4.578;2023-07-24T04:27:22;100423.06;;;16.73;100.00
69153;BME280;56261;51.580;4.578;2023-07-24T04:29:48;100423.78;;;16.62;100.00
69153;BME280;56261;51.580;4.578;2023-07-24T04:32:13;100438.16;;;16.74;100.00
69153;BME280;56261;51.580;4.578;2023-07-24T04:34:38;100423.34;;;16.65;100.00
69153;BME280;56261;51.580;4.578;2023-07-24T04:37:04;100426.75;;;16.54;100.00
69153;BME280;56261;51.580;4.578;2023-07-24T04:39:29;100421.34;;;16.54;100.00
69153;BME280;56261;51.580;4.578;2023-07-24T04:41:55;100428.41;;;16.55;100.00
69153;BME280;56261;51.580;4.578;2023-07-24T04:44:20;100427.13;;;16.57;100.00
69153;BME280;56261;51.580;4.578;2023-07-24T04:46:46;100428.09;;;16.63;100.00
69153;BME280;56261;51.580;4.578;2023-07-24T04:49:11;100434.75;;;16.60;100.00
69153;BME280;56261;51.580;4.578;2023-07-24T04:51:36;100430.03;;;16.56;100.00
69153;BME280;56261;51.580;4.578;2023-07-24T04:54:02;100430.50;;;16.53;100.00
69153;BME280;56261;51.580;4.578;2023-07-24T04:56:27;100430.97;;;16.43;100.00
69153;BME280;56261;51.580;4.578;2023-07-24T04:58:52;100436.84;;;16.58;100.00
69153;BME280;56261;51.580;4.578;2023-07-24T05:01:18;100438.34;;;16.54;100.00
69153;BME280;56261;51.580;4.578;2023-07-24T05:03:43;100437.13;;;16.50;100.00
69153;BME280;56261;51.580;4.578;2023-07-24T05:06:09;100437.91;;;16.57;100.00
69153;BME280;56261;51.580;4.578;2023-07-24T05:08:35;100436.97;;;16.70;100.00
69153;BME280;56261;51.580;4.578;2023-07-24T05:11:00;100429.72;;;16.46;100.00
69153;BME280;56261;51.580;4.578;2023-07-24T05:13:26;100427.97;;;16.58;100.00
69153;BME280;56261;51.580;4.578;2023-07-24T05:15:51;100429.44;;;16.54;100.00
69153;BME280;56261;51.580;4.578;2023-07-24T05:18:17;100428.97;;;16.64;100.00
69153;BME280;56261;51.580;4.578;2023-07-24T05:20:45;100431.81;;;16.69;100.00
69153;BME280;56261;51.580;4.578;2023-07-24T05:23:11;100431.19;;;16.67;100.00
69153;BME280;56261;51.580;4.578;2023-07-24T05:25:37;100434.50;;;16.69;100.00
69153;BME280;56261;51.580;4.578;2023-07-24T05:28:03;100439.38;;;16.78;100.00
69153;BME280;56261;51.580;4.578;2023-07-24T05:30:28;100449.53;;;16.76;100.00
69153;BME280;56261;51.580;4.578;2023-07-24T05:32:54;100449.25;;;16.91;100.00
69153;BME280;56261;51.580;4.578;2023-07-24T05:35:19;100448.78;;;16.94;100.00
69153;BME280;56261;51.580;4.578;2023-07-24T05:37:44;100458.34;;;17.15;100.00
69153;BME280;56261;51.580;4.578;2023-07-24T05:40:10;100452.03;;;17.03;100.00
69153;BME280;56261;51.580;4.578;2023-07-24T05:42:35;100443.88;;;17.10;100.00
69153;BME280;56261;51.580;4.578;2023-07-24T05:45:07;100441.66;;;17.07;100.00
69153;BME280;56261;51.580;4.578;2023-07-24T05:47:32;100445.22;;;17.00;100.00
69153;BME280;56261;51.580;4.578;2023-07-24T05:49:58;100443.84;;;17.35;100.00
69153;BME280;56261;51.580;4.578;2023-07-24T05:52:23;100441.31;;;17.40;100.00
69153;BME280;56261;51.580;4.578;2023-07-24T05:54:49;100444.06;;;17.52;100.00
69153;BME280;56261;51.580;4.578;2023-07-24T05:57:14;100438.72;;;17.63;100.00
69153;BME280;56261;51.580;4.578;2023-07-24T05:59:39;100450.59;;;17.44;100.00
69153;BME280;56261;51.580;4.578;2023-07-24T06:02:05;100449.88;;;17.12;100.00
69153;BME280;56261;51.580;4.578;2023-07-24T06:04:31;100456.53;;;17.09;100.00
69153;BME280;56261;51.580;4.578;2023-07-24T06:06:56;100456.03;;;17.19;100.00
69153;BME280;56261;51.580;4.578;2023-07-24T06:09:22;100459.19;;;17.16;100.00
69153;BME280;56261;51.580;4.578;2023-07-24T06:11:47;100457.84;;;17.25;100.00
69153;BME280;56261;51.580;4.578;2023-07-24T06:14:12;100452.75;;;17.35;100.00
69153;BME280;56261;51.580;4.578;2023-07-24T06:16:38;100462.28;;;17.38;100.00
69153;BME280;56261;51.580;4.578;2023-07-24T06:19:03;100461.19;;;17.20;100.00
69153;BME280;56261;51.580;4.578;2023-07-24T06:21:29;100463.16;;;17.32;100.00
69153;BME280;56261;51.580;4.578;2023-07-24T06:23:54;100467.19;;;17.41;100.00
69153;BME280;56261;51.580;4.578;2023-07-24T06:26:19;100460.03;;;17.35;100.00
69153;BME280;56261;51.580;4.578;2023-07-24T06:28:45;100450.63;;;17.19;100.00
69153;BME280;56261;51.580;4.578;2023-07-24T06:31:10;100471.31;;;17.25;100.00
69153;BME280;56261;51.580;4.578;2023-07-24T06:33:35;100462.88;;;17.40;100.00
69153;BME280;56261;51.580;4.578;2023-07-24T06:36:01;100464.50;;;17.41;100.00
69153;BME280;56261;51.580;4.578;2023-07-24T06:38:26;100460.84;;;17.54;100.00
69153;BME280;56261;51.580;4.578;2023-07-24T06:40:52;100448.78;;;17.56;100.00
69153;BME280;56261;51.580;4.578;2023-07-24T06:43:17;100453.56;;;17.54;100.00
69153;BME280;56261;51.580;4.578;2023-07-24T06:45:42;100439.63;;;17.76;100.00
69153;BME280;56261;51.580;4.578;2023-07-24T06:48:08;100441.88;;;17.97;100.00
69153;BME280;56261;51.580;4.578;2023-07-24T06:50:33;100446.63;;;18.14;100.00
69153;BME280;56261;51.580;4.578;2023-07-24T06:52:59;100439.22;;;18.63;100.00
69153;BME280;56261;51.580;4.578;2023-07-24T06:55:24;100442.31;;;19.02;100.00
69153;BME280;56261;51.580;4.578;2023-07-24T06:57:49;100429.97;;;19.18;100.00
69153;BME280;56261;51.580;4.578;2023-07-24T07:00:15;100436.81;;;19.20;100.00
69153;BME280;56261;51.580;4.578;2023-07-24T07:02:40;100434.34;;;19.19;100.00
69153;BME280;56261;51.580;4.578;2023-07-24T07:05:06;100429.69;;;19.55;100.00
69153;BME280;56261;51.580;4.578;2023-07-24T07:07:32;100434.16;;;19.61;100.00
69153;BME280;56261;51.580;4.578;2023-07-24T07:09:57;100442.78;;;19.11;100.00
69153;BME280;56261;51.580;4.578;2023-07-24T07:12:22;100450.03;;;18.75;100.00
69153;BME280;56261;51.580;4.578;2023-07-24T07:14:48;100451.66;;;18.52;100.00
69153;BME280;56261;51.580;4.578;2023-07-24T07:17:13;100446.34;;;19.11;100.00
69153;BME280;56261;51.580;4.578;2023-07-24T07:19:39;100437.66;;;19.09;100.00
69153;BME280;56261;51.580;4.578;2023-07-24T07:22:04;100442.19;;;18.73;100.00
69153;BME280;56261;51.580;4.578;2023-07-24T07:24:30;100445.63;;;18.38;100.00
69153;BME280;56261;51.580;4.578;2023-07-24T07:26:55;100449.38;;;18.79;100.00
69153;BME280;56261;51.580;4.578;2023-07-24T07:29:20;100451.88;;;19.04;100.00
69153;BME280;56261;51.580;4.578;2023-07-24T07:31:46;100444.91;;;18.97;100.00
69153;BME280;56261;51.580;4.578;2023-07-24T07:34:11;100455.63;;;19.03;100.00
69153;BME280;56261;51.580;4.578;2023-07-24T07:36:36;100452.91;;;18.80;100.00
69153;BME280;56261;51.580;4.578;2023-07-24T07:39:02;100463.50;;;19.05;100.00
69153;BME280;56261;51.580;4.578;2023-07-24T07:41:27;100445.19;;;19.83;100.00
69153;BME280;56261;51.580;4.578;2023-07-24T07:43:54;100429.84;;;19.88;100.00
69153;BME280;56261;51.580;4.578;2023-07-24T07:46:19;100430.19;;;19.40;100.00
69153;BME280;56261;51.580;4.578;2023-07-24T07:48:45;100429.59;;;20.36;100.00
69153;BME280;56261;51.580;4.578;2023-07-24T07:51:11;100433.03;;;20.77;100.00
69153;BME280;56261;51.580;4.578;2023-07-24T07:53:37;100443.13;;;19.90;100.00
69153;BME280;56261;51.580;4.578;2023-07-24T07:56:04;100451.34;;;19.31;100.00
69153;BME280;56261;51.580;4.578;2023-07-24T07:58:29;100455.25;;;19.47;100.00
69153;BME280;56261;51.580;4.578;2023-07-24T08:00:55;100445.91;;;19.55;100.00
69153;BME280;56261;51.580;4.578;2023-07-24T08:03:20;100448.06;;;19.41;100.00
69153;BME280;56261;51.580;4.578;2023-07-24T08:05:46;100458.16;;;20.26;100.00
69153;BME280;56261;51.580;4.578;2023-07-24T08:08:11;100442.47;;;20.28;100.00
69153;BME280;56261;51.580;4.578;2023-07-24T08:10:39;100445.28;;;19.64;100.00
69153;BME280;56261;51.580;4.578;2023-07-24T08:13:05;100433.56;;;19.70;100.00
69153;BME280;56261;51.580;4.578;2023-07-24T08:15:36;100428.22;;;19.76;100.00
69153;BME280;56261;51.580;4.578;2023-07-24T08:18:03;100447.25;;;19.28;100.00
69153;BME280;56261;51.580;4.578;2023-07-24T08:20:29;100449.38;;;18.79;100.00
69153;BME280;56261;51.580;4.578;2023-07-24T08:22:55;100455.94;;;18.72;100.00
69153;BME280;56261;51.580;4.578;2023-07-24T08:25:20;100451.47;;;18.23;100.00
69153;BME280;56261;51.580;4.578;2023-07-24T08:27:45;100457.91;;;18.11;100.00
69153;BME280;56261;51.580;4.578;2023-07-24T08:30:11;100453.91;;;18.13;100.00
69153;BME280;56261;51.580;4.578;2023-07-24T08:32:37;100457.28;;;18.09;100.00
69153;BME280;56261;51.580;4.578;2023-07-24T08:35:02;100456.69;;;18.07;100.00
69153;BME280;56261;51.580;4.578;2023-07-24T08:37:28;100459.88;;;17.85;100.00
69153;BME280;56261;51.580;4.578;2023-07-24T08:39:53;100453.44;;;17.86;100.00
69153;BME280;56261;51.580;4.578;2023-07-24T08:42:18;100439.34;;;18.14;100.00
69153;BME280;56261;51.580;4.578;2023-07-24T08:44:45;100457.03;;;18.10;100.00
69153;BME280;56261;51.580;4.578;2023-07-24T08:47:11;100458.72;;;18.11;100.00
69153;BME280;56261;51.580;4.578;2023-07-24T08:49:39;100451.09;;;17.90;100.00
69153;BME280;56261;51.580;4.578;2023-07-24T08:52:07;100455.00;;;17.94;100.00
69153;BME280;56261;51.580;4.578;2023-07-24T08:54:35;100450.28;;;17.71;100.00
69153;BME280;56261;51.580;4.578;2023-07-24T08:57:04;100436.50;;;17.60;100.00
69153;BME280;56261;51.580;4.578;2023-07-24T08:59:31;100438.75;;;17.82;100.00
69153;BME280;56261;51.580;4.578;2023-07-24T09:01:56;100427.91;;;18.00;100.00
69153;BME280;56261;51.580;4.578;2023-07-24T09:04:22;100412.75;;;18.30;100.00
69153;BME280;56261;51.580;4.578;2023-07-24T09:06:47;100405.97;;;18.39;100.00
69153;BME280;56261;51.580;4.578;2023-07-24T09:09:14;100400.81;;;18.49;100.00
69153;BME280;56261;51.580;4.578;2023-07-24T09:11:50;100399.75;;;18.62;100.00
69153;BME280;56261;51.580;4.578;2023-07-24T09:14:27;100402.56;;;18.01;100.00
69153;BME280;56261;51.580;4.578;2023-07-24T09:17:06;100400.81;;;17.95;100.00
69153;BME280;56261;51.580;4.578;2023-07-24T09:19:33;100410.94;;;17.81;100.00
69153;BME280;56261;51.580;4.578;2023-07-24T09:22:15;100414.22;;;18.02;100.00
69153;BME280;56261;51.580;4.578;2023-07-24T09:25:09;100408.41;;;17.87;100.00
69153;BME280;56261;51.580;4.578;2023-07-24T09:27:35;100407.16;;;18.13;100.00
69153;BME280;56261;51.580;4.578;2023-07-24T09:30:00;100414.25;;;18.79;100.00
69153;BME280;56261;51.580;4.578;2023-07-24T09:32:27;100418.94;;;19.19;100.00
69153;BME280;56261;51.580;4.578;2023-07-24T09:34:53;100409.66;;;19.56;100.00
69153;BME280;56261;51.580;4.578;2023-07-24T09:37:26;100400.84;;;19.72;100.00
69153;BME280;56261;51.580;4.578;2023-07-24T09:39:52;100405.09;;;19.97;100.00
69153;BME280;56261;51.580;4.578;2023-07-24T09:42:17;100377.66;;;20.72;100.00
69153;BME280;56261;51.580;4.578;2023-07-24T09:44:43;100366.50;;;21.08;100.00
69153;BME280;56261;51.580;4.578;2023-07-24T09:47:08;100375.75;;;20.90;100.00
69153;BME280;56261;51.580;4.578;2023-07-24T09:49:34;100375.25;;;20.93;100.00
69153;BME280;56261;51.580;4.578;2023-07-24T09:52:03;100386.41;;;20.12;100.00
69153;BME280;56261;51.580;4.578;2023-07-24T09:54:35;100389.53;;;20.38;100.00
69153;BME280;56261;51.580;4.578;2023-07-24T09:57:08;100388.47;;;20.05;100.00
69153;BME280;56261;51.580;4.578;2023-07-24T09:59:34;100386.16;;;19.56;100.00
69153;BME280;56261;51.580;4.578;2023-07-24T10:02:00;100392.03;;;21.12;100.00
69153;BME280;56261;51.580;4.578;2023-07-24T10:04:26;100385.34;;;20.98;100.00
69153;BME280;56261;51.580;4.578;2023-07-24T10:06:51;100389.53;;;20.38;100.00
69153;BME280;56261;51.580;4.578;2023-07-24T10:09:18;100390.19;;;20.11;100.00
69153;BME280;56261;51.580;4.578;2023-07-24T10:11:46;100398.31;;;20.11;100.00
69153;BME280;56261;51.580;4.578;2023-07-24T10:14:12;100381.59;;;20.65;100.00
69153;BME280;56261;51.580;4.578;2023-07-24T10:16:37;100379.53;;;20.21;100.00
69153;BME280;56261;51.580;4.578;2023-07-24T10:19:13;100368.69;;;20.55;100.00
69153;BME280;56261;51.580;4.578;2023-07-24T10:21:44;100371.09;;;20.85;100.00
69153;BME280;56261;51.580;4.578;2023-07-24T10:24:11;100381.53;;;19.97;100.00
69153;BME280;56261;51.580;4.578;2023-07-24T10:26:36;100390.78;;;19.84;100.00
69153;BME280;56261;51.580;4.578;2023-07-24T10:29:02;100396.00;;;20.03;100.00
69153;BME280;56261;51.580;4.578;2023-07-24T10:31:28;100391.41;;;20.03;100.00
69153;BME280;56261;51.580;4.578;2023-07-24T10:33:54;100392.00;;;19.77;100.00
69153;BME280;56261;51.580;4.578;2023-07-24T10:36:21;100392.03;;;19.94;100.00
69153;BME280;56261;51.580;4.578;2023-07-24T10:38:54;100389.31;;;20.39;100.00
69153;BME280;56261;51.580;4.578;2023-07-24T10:41:19;100389.06;;;20.41;100.00
69153;BME280;56261;51.580;4.578;2023-07-24T10:43:49;100370.75;;;20.31;100.00
69153;BME280;56261;51.580;4.578;2023-07-24T10:46:17;100387.34;;;20.35;100.00
69153;BME280;56261;51.580;4.578;2023-07-24T10:48:45;100386.59;;;20.90;100.00
69153;BME280;56261;51.580;4.578;2023-07-24T10:51:11;100379.59;;;20.94;100.00
69153;BME280;56261;51.580;4.578;2023-07-24T10:53:47;100391.09;;;21.01;100.00
69153;BME280;56261;51.580;4.578;2023-07-24T10:56:13;100389.81;;;20.70;100.00
69153;BME280;56261;51.580;4.578;2023-07-24T10:58:39;100393.47;;;20.98;100.00
69153;BME280;56261;51.580;4.578;2023-07-24T11:01:05;100405.00;;;20.71;100.00
69153;BME280;56261;51.580;4.578;2023-07-24T11:03:31;100405.00;;;20.37;100.00
69153;BME280;56261;51.580;4.578;2023-07-24T11:05:57;100410.00;;;20.45;100.00
69153;BME280;56261;51.580;4.578;2023-07-24T11:08:24;100407.72;;;20.54;100.00
69153;BME280;56261;51.580;4.578;2023-07-24T11:10:55;100397.69;;;20.38;100.00
69153;BME280;56261;51.580;4.578;2023-07-24T11:13:26;100397.41;;;20.56;100.00
69153;BME280;56261;51.580;4.578;2023-07-24T11:15:53;100394.38;;;20.36;100.00
69153;BME280;56261;51.580;4.578;2023-07-24T11:18:19;100396.09;;;20.25;100.00
69153;BME280;56261;51.580;4.578;2023-07-24T11:20:52;100398.88;;;20.13;100.00
69153;BME280;56261;51.580;4.578;2023-07-24T11:23:18;100411.69;;;20.18;100.00
69153;BME280;56261;51.580;4.578;2023-07-24T11:25:44;100417.91;;;20.01;100.00
69153;BME280;56261;51.580;4.578;2023-07-24T11:28:11;100413.06;;;19.75;100.00
69153;BME280;56261;51.580;4.578;2023-07-24T11:30:37;100411.81;;;19.94;100.00
69153;BME280;56261;51.580;4.578;2023-07-24T11:33:04;100408.97;;;19.72;100.00
69153;BME280;56261;51.580;4.578;2023-07-24T11:35:30;100416.00;;;19.73;100.00
69153;BME280;56261;51.580;4.578;2023-07-24T11:37:55;100407.25;;;20.11;100.00
69153;BME280;56261;51.580;4.578;2023-07-24T11:40:21;100402.81;;;20.05;100.00
69153;BME280;56261;51.580;4.578;2023-07-24T11:42:48;100409.63;;;20.25;100.00
69153;BME280;56261;51.580;4.578;2023-07-24T11:45:14;100419.00;;;20.17;100.00
69153;BME280;56261;51.580;4.578;2023-07-24T11:47:44;100426.09;;;20.06;100.00
69153;BME280;56261;51.580;4.578;2023-07-24T11:50:10;100415.00;;;19.91;100.00
69153;BME280;56261;51.580;4.578;2023-07-24T11:52:47;100422.97;;;19.57;100.00
69153;BME280;56261;51.580;4.578;2023-07-24T11:55:15;100423.91;;;19.51;100.00
69153;BME280;56261;51.580;4.578;2023-07-24T11:57:41;100430.06;;;20.16;100.00
69153;BME280;56261;51.580;4.578;2023-07-24T12:00:18;100418.03;;;20.40;100.00
69153;BME280;56261;51.580;4.578;2023-07-24T12:02:44;100416.72;;;20.43;100.00
69153;BME280;56261;51.580;4.578;2023-07-24T12:05:10;100399.66;;;20.25;100.00
69153;BME280;56261;51.580;4.578;2023-07-24T12:07:36;100412.22;;;20.48;100.00
69153;BME280;56261;51.580;4.578;2023-07-24T12:10:03;100402.94;;;20.78;100.00
69153;BME280;56261;51.580;4.578;2023-07-24T12:12:46;100401.13;;;20.50;100.00
69153;BME280;56261;51.580;4.578;2023-07-24T12:15:13;100414.69;;;20.50;100.00
69153;BME280;56261;51.580;4.578;2023-07-24T12:17:39;100405.50;;;20.68;100.00
69153;BME280;56261;51.580;4.578;2023-07-24T12:20:05;100406.09;;;20.70;100.00
69153;BME280;56261;51.580;4.578;2023-07-24T12:22:36;100406.72;;;20.60;100.00
69153;BME280;56261;51.580;4.578;2023-07-24T12:25:02;100405.97;;;20.14;100.00
69153;BME280;56261;51.580;4.578;2023-07-24T12:27:28;100397.09;;;20.19;100.00
69153;BME280;56261;51.580;4.578;2023-07-24T12:29:53;100408.28;;;20.39;100.00
69153;BME280;56261;51.580;4.578;2023-07-24T12:32:19;100398.44;;;20.50;100.00
69153;BME280;56261;51.580;4.578;2023-07-24T12:34:52;100399.81;;;20.52;100.00
69153;BME280;56261;51.580;4.578;2023-07-24T12:37:18;100399.53;;;20.66;100.00
69153;BME280;56261;51.580;4.578;2023-07-24T12:39:45;100398.38;;;20.62;100.00